createdAt,value
2016-12-06T00:00:54.438Z,0.94
2016-12-06T00:01:54.412Z,0.91
2016-12-06T00:02:54.400Z,1.02
2016-12-06T00:03:54.385Z,0.96
2016-12-06T00:04:54.368Z,1
2016-12-06T00:05:54.349Z,1.04
2016-12-06T00:06:54.340Z,1.14
2016-12-06T00:07:54.321Z,1.12
2016-12-06T00:08:54.309Z,1.09
2016-12-06T00:09:54.293Z,1.16
2016-12-06T00:10:54.280Z,1.2
2016-12-06T00:11:54.263Z,1.22
2016-12-06T00:12:54.247Z,1.24
2016-12-06T00:13:54.228Z,1.33
2016-12-06T00:14:54.217Z,1.4
2016-12-06T00:15:54.199Z,1.34
2016-12-06T00:16:54.189Z,1.3
2016-12-06T00:17:54.171Z,1.45
2016-12-06T00:18:54.455Z,1.41
2016-12-06T00:19:54.143Z,1.47
2016-12-06T00:20:54.131Z,1.47
2016-12-06T00:21:54.114Z,1.51
2016-12-06T00:22:54.097Z,1.48
2016-12-06T00:23:54.094Z,1.47
2016-12-06T00:24:54.065Z,1.51
2016-12-06T00:25:54.048Z,1.51
2016-12-06T00:26:54.333Z,1.44
2016-12-06T00:27:54.023Z,1.48
2016-12-06T00:28:54.006Z,1.55
2016-12-06T00:29:53.989Z,1.52
2016-12-06T00:30:53.978Z,1.52
2016-12-06T00:31:53.963Z,1.52
2016-12-06T00:32:53.945Z,1.45
2016-12-06T00:33:53.927Z,1.48
2016-12-06T00:34:53.917Z,1.47
2016-12-06T00:35:53.906Z,1.42
2016-12-06T00:36:53.886Z,1.48
2016-12-06T00:37:53.870Z,1.48
2016-12-06T00:38:53.861Z,1.45
2016-12-06T00:39:53.849Z,1.52
2016-12-06T00:40:54.130Z,1.47
2016-12-06T00:41:53.817Z,1.54
2016-12-06T00:42:53.803Z,1.48
2016-12-06T00:43:53.792Z,1.59
2016-12-06T00:44:53.775Z,1.52
2016-12-06T00:45:53.754Z,1.51
2016-12-06T00:46:53.746Z,1.62
2016-12-06T00:47:53.724Z,1.55
2016-12-06T00:48:53.713Z,1.59
2016-12-06T00:49:53.699Z,1.6
2016-12-06T00:50:53.685Z,1.6
2016-12-06T00:51:53.670Z,1.6
2016-12-06T00:52:53.651Z,1.66
2016-12-06T00:53:53.636Z,1.58
2016-12-06T00:54:53.930Z,1.68
2016-12-06T00:55:53.606Z,1.69
2016-12-06T00:56:53.586Z,1.81
2016-12-06T00:57:53.578Z,1.72
2016-12-06T00:58:53.555Z,1.68
2016-12-06T00:59:53.544Z,1.77
2016-12-06T01:00:53.528Z,1.83
2016-12-06T01:01:53.524Z,1.81
2016-12-06T01:02:53.503Z,1.8
2016-12-06T01:03:53.517Z,1.76
2016-12-06T01:04:53.474Z,1.83
2016-12-06T01:05:53.460Z,1.88
2016-12-06T01:06:53.444Z,1.91
2016-12-06T01:07:53.430Z,1.99
2016-12-06T01:08:53.719Z,1.91
2016-12-06T01:09:53.401Z,2.02
2016-12-06T01:10:53.386Z,2.03
2016-12-06T01:11:53.369Z,1.93
2016-12-06T01:12:53.364Z,1.95
2016-12-06T01:13:53.349Z,1.98
2016-12-06T01:14:53.324Z,1.98
2016-12-06T01:15:53.320Z,2
2016-12-06T01:16:53.305Z,2.02
2016-12-06T01:17:53.280Z,2.07
2016-12-06T01:18:53.270Z,2.06
2016-12-06T01:19:53.256Z,2.09
2016-12-06T01:20:53.246Z,2.09
2016-12-06T01:21:53.226Z,2.14
2016-12-06T01:22:53.219Z,2.1
2016-12-06T01:23:53.199Z,2.16
2016-12-06T01:24:53.177Z,2.1
2016-12-06T01:25:53.169Z,2.1
2016-12-06T01:26:53.158Z,2.2
2016-12-06T01:27:53.141Z,2.18
2016-12-06T01:28:53.128Z,2.3
2016-12-06T01:29:53.110Z,2.27
2016-12-06T01:30:53.124Z,2.28
2016-12-06T01:31:53.384Z,2.38
2016-12-06T01:32:53.067Z,2.39
2016-12-06T01:33:53.054Z,2.35
2016-12-06T01:34:53.038Z,2.38
2016-12-06T01:35:53.019Z,2.38
2016-12-06T01:36:53.014Z,2.36
2016-12-06T01:37:52.995Z,2.38
2016-12-06T01:38:52.981Z,2.45
2016-12-06T01:39:52.969Z,2.38
2016-12-06T01:40:52.954Z,2.45
2016-12-06T01:41:52.938Z,2.39
2016-12-06T01:42:52.926Z,2.38
2016-12-06T01:43:52.913Z,2.36
2016-12-06T01:44:52.896Z,2.39
2016-12-06T01:45:52.883Z,2.45
2016-12-06T01:46:52.868Z,2.43
2016-12-06T01:47:52.854Z,2.42
2016-12-06T01:48:52.842Z,2.43
2016-12-06T01:49:52.853Z,2.42
2016-12-06T01:50:52.813Z,2.53
2016-12-06T01:51:52.795Z,2.43
2016-12-06T01:52:52.782Z,2.39
2016-12-06T01:53:52.771Z,2.49
2016-12-06T01:54:52.752Z,2.42
2016-12-06T01:55:52.740Z,2.41
2016-12-06T01:56:52.725Z,2.43
2016-12-06T01:57:52.717Z,2.38
2016-12-06T01:58:52.695Z,2.36
2016-12-06T01:59:52.685Z,2.23
2016-12-06T02:00:52.698Z,2.18
2016-12-06T02:01:52.657Z,2.1
2016-12-06T02:02:52.640Z,2.16
2016-12-06T02:03:52.625Z,2.17
2016-12-06T02:04:52.619Z,2.05
2016-12-06T02:05:52.598Z,2.16
2016-12-06T02:06:52.608Z,2.16
2016-12-06T02:07:52.567Z,2.12
2016-12-06T02:08:52.558Z,2.21
2016-12-06T02:09:52.545Z,2.25
2016-12-06T02:10:52.829Z,2.17
2016-12-06T02:11:52.516Z,2.27
2016-12-06T02:12:52.500Z,2.2
2016-12-06T02:13:52.482Z,2.25
2016-12-06T02:14:52.463Z,2.35
2016-12-06T02:15:52.453Z,2.23
2016-12-06T02:16:52.443Z,2.41
2016-12-06T02:17:52.428Z,2.41
2016-12-06T02:18:52.412Z,2.38
2016-12-06T02:19:52.394Z,2.45
2016-12-06T02:20:52.385Z,2.41
2016-12-06T02:21:52.365Z,2.45
2016-12-06T02:22:52.350Z,2.49
2016-12-06T02:23:52.342Z,2.48
2016-12-06T02:24:52.332Z,2.41
2016-12-06T02:25:52.308Z,2.41
2016-12-06T02:26:52.292Z,2.38
2016-12-06T02:27:52.280Z,2.39
2016-12-06T02:28:52.269Z,2.39
2016-12-06T02:29:52.256Z,2.42
2016-12-06T02:30:52.267Z,2.41
2016-12-06T02:31:52.229Z,2.36
2016-12-06T02:32:52.219Z,2.35
2016-12-06T02:33:52.199Z,2.35
2016-12-06T02:34:52.178Z,2.35
2016-12-06T02:35:52.171Z,2.24
2016-12-06T02:36:52.156Z,2.25
2016-12-06T02:37:52.144Z,2.27
2016-12-06T02:38:52.123Z,2.18
2016-12-06T02:39:52.144Z,2.1
2016-12-06T02:40:52.096Z,2.17
2016-12-06T02:41:52.084Z,2.06
2016-12-06T02:42:52.069Z,2.16
2016-12-06T02:43:52.055Z,2.16
2016-12-06T02:44:52.035Z,2.09
2016-12-06T02:45:52.033Z,2.1
2016-12-06T02:46:52.012Z,2.14
2016-12-06T02:47:51.996Z,2.12
2016-12-06T02:48:51.980Z,2.16
2016-12-06T02:49:51.968Z,2.12
2016-12-06T02:50:51.956Z,2.12
2016-12-06T02:51:51.936Z,2.14
2016-12-06T02:52:51.929Z,2.05
2016-12-06T02:53:51.912Z,2.07
2016-12-06T02:54:51.895Z,2.1
2016-12-06T02:55:51.885Z,2.1
2016-12-06T02:56:52.178Z,2.05
2016-12-06T02:57:51.853Z,2.09
2016-12-06T02:58:51.837Z,2.07
2016-12-06T02:59:51.827Z,2
2016-12-06T03:00:52.112Z,2.05
2016-12-06T03:01:51.796Z,2.1
2016-12-06T03:02:51.785Z,2.12
2016-12-06T03:03:51.768Z,2.09
2016-12-06T03:04:52.063Z,2.17
2016-12-06T03:05:51.742Z,2.27
2016-12-06T03:06:51.720Z,2.2
2016-12-06T03:07:51.710Z,2.35
2016-12-06T03:08:51.696Z,2.38
2016-12-06T03:09:51.680Z,2.31
2016-12-06T03:10:51.668Z,2.38
2016-12-06T03:11:51.649Z,2.49
2016-12-06T03:12:51.638Z,2.49
2016-12-06T03:13:51.622Z,2.42
2016-12-06T03:14:51.608Z,2.41
2016-12-06T03:15:51.593Z,2.48
2016-12-06T03:16:51.586Z,2.45
2016-12-06T03:17:51.566Z,2.53
2016-12-06T03:18:51.556Z,2.48
2016-12-06T03:19:51.534Z,2.35
2016-12-06T03:20:51.525Z,2.39
2016-12-06T03:21:51.516Z,2.36
2016-12-06T03:22:51.493Z,2.43
2016-12-06T03:23:51.482Z,2.48
2016-12-06T03:24:51.469Z,2.49
2016-12-06T03:25:51.458Z,2.53
2016-12-06T03:26:51.437Z,2.45
2016-12-06T03:27:51.427Z,2.38
2016-12-06T03:28:51.444Z,2.38
2016-12-06T03:29:51.394Z,2.36
2016-12-06T03:30:51.380Z,2.41
2016-12-06T03:31:51.371Z,2.38
2016-12-06T03:32:51.354Z,2.39
2016-12-06T03:33:51.341Z,2.42
2016-12-06T03:34:51.329Z,2.41
2016-12-06T03:35:51.313Z,2.53
2016-12-06T03:36:51.296Z,2.52
2016-12-06T03:37:51.287Z,2.36
2016-12-06T03:38:51.267Z,2.38
2016-12-06T03:39:51.256Z,2.41
2016-12-06T03:40:51.255Z,2.39
2016-12-06T03:41:51.254Z,2.36
2016-12-06T03:42:51.212Z,2.41
2016-12-06T03:43:51.197Z,2.39
2016-12-06T03:44:51.180Z,2.3
2016-12-06T03:45:51.173Z,2.41
2016-12-06T03:46:51.153Z,2.39
2016-12-06T03:47:51.142Z,2.38
2016-12-06T03:48:51.127Z,2.38
2016-12-06T03:49:51.114Z,2.41
2016-12-06T03:50:51.098Z,2.36
2016-12-06T03:51:51.080Z,2.3
2016-12-06T03:52:51.076Z,2.39
2016-12-06T03:53:51.054Z,2.35
2016-12-06T03:54:51.047Z,2.45
2016-12-06T03:55:51.026Z,2.35
2016-12-06T03:56:51.016Z,2.35
2016-12-06T03:57:50.999Z,2.42
2016-12-06T03:58:50.983Z,2.45
2016-12-06T03:59:50.969Z,2.42
2016-12-06T04:00:50.960Z,2.42
2016-12-06T04:01:50.939Z,2.39
2016-12-06T04:02:50.926Z,2.45
2016-12-06T04:03:51.218Z,2.41
2016-12-06T04:04:51.204Z,2.41
2016-12-06T04:05:50.881Z,2.38
2016-12-06T04:06:50.873Z,2.41
2016-12-06T04:07:50.860Z,2.41
2016-12-06T04:08:50.841Z,2.36
2016-12-06T04:09:50.828Z,2.3
2016-12-06T04:10:50.814Z,2.35
2016-12-06T04:11:50.808Z,2.34
2016-12-06T04:12:50.788Z,2.24
2016-12-06T04:13:50.770Z,2.24
2016-12-06T04:14:50.759Z,2.31
2016-12-06T04:15:50.746Z,2.36
2016-12-06T04:16:50.760Z,2.27
2016-12-06T04:17:50.722Z,2.38
2016-12-06T04:18:50.698Z,2.36
2016-12-06T04:19:50.685Z,2.36
2016-12-06T04:20:50.678Z,2.38
2016-12-06T04:21:50.659Z,2.2
2016-12-06T04:22:50.652Z,2.27
2016-12-06T04:23:50.631Z,2.35
2016-12-06T04:24:50.624Z,2.31
2016-12-06T04:25:50.603Z,2.35
2016-12-06T04:26:50.590Z,2.42
2016-12-06T04:27:50.571Z,2.36
2016-12-06T04:28:50.560Z,2.41
2016-12-06T04:29:50.542Z,2.36
2016-12-06T04:30:50.531Z,2.45
2016-12-06T04:31:50.519Z,2.39
2016-12-06T04:32:50.509Z,2.49
2016-12-06T04:33:50.492Z,2.59
2016-12-06T04:34:50.477Z,2.6
2016-12-06T04:35:50.463Z,2.45
2016-12-06T04:36:50.443Z,2.59
2016-12-06T04:37:50.428Z,2.59
2016-12-06T04:38:50.420Z,2.56
2016-12-06T04:39:50.407Z,2.61
2016-12-06T04:40:50.394Z,2.59
2016-12-06T04:41:50.376Z,2.6
2016-12-06T04:42:50.365Z,2.63
2016-12-06T04:43:50.343Z,2.61
2016-12-06T04:44:50.341Z,2.61
2016-12-06T04:45:50.319Z,2.59
2016-12-06T04:46:50.308Z,2.67
2016-12-06T04:47:50.294Z,2.66
2016-12-06T04:48:50.284Z,2.72
2016-12-06T04:49:50.261Z,2.67
2016-12-06T04:50:50.250Z,2.66
2016-12-06T04:51:50.232Z,2.74
2016-12-06T04:52:50.221Z,2.77
2016-12-06T04:53:50.207Z,2.66
2016-12-06T04:54:50.192Z,2.74
2016-12-06T04:55:50.179Z,2.74
2016-12-06T04:56:50.164Z,2.71
2016-12-06T04:57:50.150Z,2.69
2016-12-06T04:58:50.136Z,2.78
2016-12-06T04:59:50.128Z,2.77
2016-12-06T05:00:50.105Z,2.69
2016-12-06T05:01:50.099Z,2.66
2016-12-06T05:02:50.085Z,2.84
2016-12-06T05:03:50.068Z,2.78
2016-12-06T05:04:50.052Z,2.85
2016-12-06T05:05:50.039Z,2.87
2016-12-06T05:06:50.028Z,2.82
2016-12-06T05:07:50.010Z,2.79
2016-12-06T05:08:49.996Z,2.87
2016-12-06T05:09:49.983Z,2.93
2016-12-06T05:10:49.964Z,2.96
2016-12-06T05:11:50.258Z,2.96
2016-12-06T05:12:49.937Z,3
2016-12-06T05:13:49.930Z,3.05
2016-12-06T05:14:49.918Z,3.08
2016-12-06T05:15:49.898Z,3.1
2016-12-06T05:16:49.895Z,3.14
2016-12-06T05:17:49.872Z,3.2
2016-12-06T05:18:49.863Z,3.26
2016-12-06T05:19:49.846Z,3.23
2016-12-06T05:20:49.832Z,3.31
2016-12-06T05:21:49.814Z,3.35
2016-12-06T05:22:49.804Z,3.23
2016-12-06T05:23:49.791Z,3.24
2016-12-06T05:24:49.780Z,3.21
2016-12-06T05:25:49.758Z,3.26
2016-12-06T05:26:49.751Z,3.29
2016-12-06T05:27:49.735Z,3.24
2016-12-06T05:28:49.723Z,3.26
2016-12-06T05:29:49.704Z,3.26
2016-12-06T05:30:49.690Z,3.28
2016-12-06T05:31:49.682Z,3.29
2016-12-06T05:32:49.669Z,3.33
2016-12-06T05:33:49.653Z,3.32
2016-12-06T05:34:49.639Z,3.31
2016-12-06T05:35:49.626Z,3.32
2016-12-06T05:36:49.613Z,3.29
2016-12-06T05:37:49.600Z,3.29
2016-12-06T05:38:49.589Z,3.29
2016-12-06T05:39:49.568Z,3.29
2016-12-06T05:40:49.558Z,3.35
2016-12-06T05:41:49.545Z,3.39
2016-12-06T05:42:49.533Z,3.36
2016-12-06T05:43:49.519Z,3.45
2016-12-06T05:44:49.503Z,3.35
2016-12-06T05:45:49.493Z,3.39
2016-12-06T05:46:49.478Z,3.4
2016-12-06T05:47:49.461Z,3.43
2016-12-06T05:48:49.450Z,3.43
2016-12-06T05:49:49.432Z,3.43
2016-12-06T05:50:49.429Z,3.48
2016-12-06T05:51:49.406Z,3.36
2016-12-06T05:52:49.394Z,3.5
2016-12-06T05:53:49.386Z,3.4
2016-12-06T05:54:49.372Z,3.48
2016-12-06T05:55:49.354Z,3.5
2016-12-06T05:56:49.340Z,3.5
2016-12-06T05:57:49.328Z,3.47
2016-12-06T05:58:49.317Z,3.36
2016-12-06T05:59:49.308Z,3.43
2016-12-06T06:00:49.286Z,3.39
2016-12-06T06:01:49.276Z,3.39
2016-12-06T06:02:49.259Z,3.4
2016-12-06T06:03:49.243Z,3.42
2016-12-06T06:04:49.239Z,3.35
2016-12-06T06:05:49.227Z,3.36
2016-12-06T06:06:49.217Z,3.36
2016-12-06T06:07:49.215Z,3.35
2016-12-06T06:08:49.176Z,3.28
2016-12-06T06:09:49.167Z,3.35
2016-12-06T06:10:49.460Z,3.45
2016-12-06T06:11:49.144Z,3.4
2016-12-06T06:12:49.125Z,3.35
2016-12-06T06:13:49.112Z,3.36
2016-12-06T06:14:49.096Z,3.32
2016-12-06T06:15:49.091Z,3.36
2016-12-06T06:16:49.073Z,3.39
2016-12-06T06:17:49.060Z,3.51
2016-12-06T06:18:49.046Z,3.48
2016-12-06T06:19:49.333Z,3.42
2016-12-06T06:20:49.019Z,3.5
2016-12-06T06:21:49.005Z,3.57
2016-12-06T06:22:48.995Z,3.54
2016-12-06T06:23:48.987Z,3.65
2016-12-06T06:24:48.960Z,3.61
2016-12-06T06:25:48.957Z,3.65
2016-12-06T06:26:48.937Z,3.62
2016-12-06T06:27:48.931Z,3.72
2016-12-06T06:28:48.907Z,3.72
2016-12-06T06:29:48.905Z,3.76
2016-12-06T06:30:48.884Z,3.7
2016-12-06T06:31:48.877Z,3.75
2016-12-06T06:32:48.857Z,3.75
2016-12-06T06:33:48.848Z,3.73
2016-12-06T06:34:48.836Z,3.84
2016-12-06T06:35:48.828Z,3.8
2016-12-06T06:36:48.809Z,3.83
2016-12-06T06:37:48.790Z,3.75
2016-12-06T06:38:48.780Z,3.75
2016-12-06T06:39:48.775Z,3.8
2016-12-06T06:40:48.753Z,3.78
2016-12-06T06:41:48.745Z,3.8
2016-12-06T06:42:48.728Z,3.76
2016-12-06T06:43:48.715Z,3.78
2016-12-06T06:44:48.703Z,3.83
2016-12-06T06:45:48.689Z,3.73
2016-12-06T06:46:48.676Z,3.69
2016-12-06T06:47:48.959Z,3.73
2016-12-06T06:48:48.655Z,3.72
2016-12-06T06:49:48.632Z,3.69
2016-12-06T06:50:48.636Z,3.62
2016-12-06T06:51:48.610Z,3.66
2016-12-06T06:52:48.590Z,3.69
2016-12-06T06:53:48.576Z,3.65
2016-12-06T06:54:48.569Z,3.52
2016-12-06T06:55:48.554Z,3.55
2016-12-06T06:56:48.545Z,3.47
2016-12-06T06:57:48.531Z,3.54
2016-12-06T06:58:48.825Z,3.45
2016-12-06T06:59:48.503Z,3.54
2016-12-06T07:00:48.522Z,3.6
2016-12-06T07:01:48.479Z,3.45
2016-12-06T07:02:48.461Z,3.61
2016-12-06T07:03:48.449Z,3.62
2016-12-06T07:04:48.440Z,3.61
2016-12-06T07:05:48.420Z,3.61
2016-12-06T07:06:48.407Z,3.57
2016-12-06T07:07:48.393Z,3.58
2016-12-06T07:08:48.681Z,3.66
2016-12-06T07:09:48.366Z,3.66
2016-12-06T07:10:48.358Z,3.72
2016-12-06T07:11:48.642Z,3.62
2016-12-06T07:12:48.329Z,3.66
2016-12-06T07:13:48.317Z,3.66
2016-12-06T07:14:48.302Z,3.69
2016-12-06T07:15:48.296Z,3.68
2016-12-06T07:16:48.280Z,3.66
2016-12-06T07:17:48.268Z,3.72
2016-12-06T07:18:48.247Z,3.76
2016-12-06T07:19:48.243Z,3.83
2016-12-06T07:20:48.224Z,3.78
2016-12-06T07:21:48.213Z,3.75
2016-12-06T07:22:48.197Z,3.75
2016-12-06T07:23:48.181Z,3.8
2016-12-06T07:24:48.165Z,3.88
2016-12-06T07:25:48.163Z,3.91
2016-12-06T07:26:48.144Z,3.87
2016-12-06T07:27:48.138Z,3.83
2016-12-06T07:28:48.120Z,3.87
2016-12-06T07:29:48.103Z,3.91
2016-12-06T07:30:48.094Z,4.05
2016-12-06T07:31:48.081Z,3.94
2016-12-06T07:32:48.070Z,4.02
2016-12-06T07:33:48.060Z,3.94
2016-12-06T07:34:48.335Z,4.04
2016-12-06T07:35:48.032Z,4.06
2016-12-06T07:36:48.007Z,3.98
2016-12-06T07:37:48.002Z,4.04
2016-12-06T07:38:47.990Z,4.04
2016-12-06T07:39:47.978Z,4
2016-12-06T07:40:47.957Z,4
2016-12-06T07:41:47.951Z,4.05
2016-12-06T07:42:47.936Z,4.12
2016-12-06T07:43:47.922Z,4.11
2016-12-06T07:44:47.910Z,4.15
2016-12-06T07:45:47.893Z,4.18
2016-12-06T07:46:47.905Z,4.16
2016-12-06T07:47:47.869Z,4.26
2016-12-06T07:48:47.856Z,4.29
2016-12-06T07:49:48.141Z,4.37
2016-12-06T07:50:47.825Z,4.41
2016-12-06T07:51:47.817Z,4.37
2016-12-06T07:52:47.808Z,4.37
2016-12-06T07:53:47.793Z,4.37
2016-12-06T07:54:47.780Z,4.34
2016-12-06T07:55:47.770Z,4.52
2016-12-06T07:56:47.785Z,4.5
2016-12-06T07:57:47.740Z,4.5
2016-12-06T07:58:47.728Z,4.48
2016-12-06T07:59:47.718Z,4.5
2016-12-06T08:00:47.711Z,4.47
2016-12-06T08:01:47.690Z,4.51
2016-12-06T08:02:47.679Z,4.58
2016-12-06T08:03:47.669Z,4.6
2016-12-06T08:04:47.655Z,4.62
2016-12-06T08:05:47.642Z,4.7
2016-12-06T08:06:47.667Z,4.65
2016-12-06T08:07:47.621Z,4.66
2016-12-06T08:08:47.600Z,4.8
2016-12-06T08:09:47.584Z,4.72
2016-12-06T08:10:47.581Z,4.77
2016-12-06T08:11:47.566Z,4.75
2016-12-06T08:12:47.550Z,4.8
2016-12-06T08:13:47.539Z,4.82
2016-12-06T08:14:47.527Z,4.82
2016-12-06T08:15:47.520Z,4.91
2016-12-06T08:16:47.506Z,4.97
2016-12-06T08:17:48.107Z,4.96
2016-12-06T08:18:47.480Z,4.94
2016-12-06T08:19:47.472Z,5.03
2016-12-06T08:20:47.754Z,5.07
2016-12-06T08:21:47.438Z,5.07
2016-12-06T08:22:47.433Z,5.13
2016-12-06T08:23:47.420Z,5.17
2016-12-06T08:24:47.402Z,5.13
2016-12-06T08:25:47.392Z,5.27
2016-12-06T08:26:47.390Z,5.21
2016-12-06T08:27:47.363Z,5.22
2016-12-06T08:28:47.362Z,5.27
2016-12-06T08:29:47.347Z,5.3
2016-12-06T08:30:47.332Z,5.39
2016-12-06T08:31:47.318Z,5.45
2016-12-06T08:32:47.303Z,5.45
2016-12-06T08:33:47.295Z,5.46
2016-12-06T08:34:47.294Z,5.4
2016-12-06T08:35:47.568Z,5.46
2016-12-06T08:36:47.267Z,5.4
2016-12-06T08:37:47.251Z,5.49
2016-12-06T08:38:47.236Z,5.56
2016-12-06T08:39:47.529Z,5.54
2016-12-06T08:40:47.221Z,5.53
2016-12-06T08:41:47.213Z,5.51
2016-12-06T08:42:47.192Z,5.48
2016-12-06T08:43:47.180Z,5.58
2016-12-06T08:44:47.162Z,5.49
2016-12-06T08:45:47.459Z,5.45
2016-12-06T08:46:47.143Z,5.49
2016-12-06T08:47:47.127Z,5.48
2016-12-06T08:48:47.529Z,5.53
2016-12-06T08:49:47.104Z,5.46
2016-12-06T08:50:47.099Z,5.45
2016-12-06T08:51:47.089Z,5.36
2016-12-06T08:52:47.072Z,5.39
2016-12-06T08:53:47.363Z,5.31
2016-12-06T08:54:47.048Z,5.28
2016-12-06T08:55:47.040Z,5.27
2016-12-06T08:56:47.024Z,5.31
2016-12-06T08:57:47.010Z,5.2
2016-12-06T08:58:46.996Z,5.3
2016-12-06T08:59:46.985Z,5.25
2016-12-06T09:00:46.979Z,5.24
2016-12-06T09:01:46.964Z,5.24
2016-12-06T09:02:46.968Z,5.2
2016-12-06T09:03:47.241Z,5.21
2016-12-06T09:04:46.928Z,5.25
2016-12-06T09:05:46.923Z,5.27
2016-12-06T09:06:46.907Z,5.22
2016-12-06T09:07:46.893Z,5.3
2016-12-06T09:08:46.882Z,5.22
2016-12-06T09:09:47.101Z,5.35
2016-12-06T09:10:46.858Z,5.31
2016-12-06T09:11:46.846Z,5.31
2016-12-06T09:12:46.837Z,5.39
2016-12-06T09:13:46.849Z,5.42
2016-12-06T09:14:46.807Z,5.48
2016-12-06T09:15:46.802Z,5.42
2016-12-06T09:16:46.784Z,5.46
2016-12-06T09:17:46.775Z,5.58
2016-12-06T09:18:46.763Z,5.54
2016-12-06T09:19:46.748Z,5.53
2016-12-06T09:20:46.762Z,5.64
2016-12-06T09:21:47.027Z,5.58
2016-12-06T09:22:46.715Z,5.54
2016-12-06T09:23:46.704Z,5.71
2016-12-06T09:24:46.688Z,5.74
2016-12-06T09:25:46.686Z,5.78
2016-12-06T09:26:46.690Z,5.78
2016-12-06T09:27:46.662Z,5.9
2016-12-06T09:28:46.642Z,5.81
2016-12-06T09:29:46.937Z,5.9
2016-12-06T09:30:46.614Z,5.85
2016-12-06T09:31:46.611Z,5.9
2016-12-06T09:32:46.602Z,5.86
2016-12-06T09:33:46.586Z,5.85
2016-12-06T09:34:46.573Z,5.9
2016-12-06T09:35:46.562Z,5.9
2016-12-06T09:36:46.547Z,5.81
2016-12-06T09:37:46.538Z,5.85
2016-12-06T09:38:46.526Z,5.86
2016-12-06T09:39:46.523Z,5.97
2016-12-06T09:40:46.513Z,5.96
2016-12-06T09:41:46.500Z,5.91
2016-12-06T09:42:46.481Z,5.97
2016-12-06T09:43:46.475Z,5.89
2016-12-06T09:44:46.459Z,5.97
2016-12-06T09:45:46.429Z,5.91
2016-12-06T09:46:46.440Z,5.97
2016-12-06T09:47:46.428Z,6
2016-12-06T09:48:46.439Z,6.06
2016-12-06T09:49:46.400Z,6.01
2016-12-06T09:50:46.389Z,5.94
2016-12-06T09:51:46.410Z,6.06
2016-12-06T09:52:46.371Z,6.04
2016-12-06T09:53:46.658Z,6.06
2016-12-06T09:54:46.347Z,6.09
2016-12-06T09:55:46.331Z,6.04
2016-12-06T09:56:46.321Z,6.06
2016-12-06T09:57:46.319Z,6.06
2016-12-06T09:58:46.305Z,6.11
2016-12-06T09:59:46.290Z,6.06
2016-12-06T10:00:46.278Z,6.06
2016-12-06T10:01:46.267Z,6.06
2016-12-06T10:02:46.256Z,5.97
2016-12-06T10:03:46.246Z,6.08
2016-12-06T10:04:46.230Z,6.06
2016-12-06T10:05:46.229Z,6.06
2016-12-06T10:06:46.560Z,6.11
2016-12-06T10:07:46.199Z,6.14
2016-12-06T10:08:46.189Z,6.09
2016-12-06T10:09:46.177Z,6.06
2016-12-06T10:10:46.160Z,6.06
2016-12-06T10:11:46.159Z,6
2016-12-06T10:12:46.143Z,6.15
2016-12-06T10:13:46.137Z,5.99
2016-12-06T10:14:46.117Z,6.15
2016-12-06T10:15:46.111Z,6.08
2016-12-06T10:16:46.092Z,6.12
2016-12-06T10:17:46.397Z,6.11
2016-12-06T10:18:46.072Z,6.06
2016-12-06T10:19:46.059Z,6.15
2016-12-06T10:20:46.350Z,6.14
2016-12-06T10:21:46.046Z,6.09
2016-12-06T10:22:46.346Z,6.17
2016-12-06T10:23:46.019Z,6.18
2016-12-06T10:24:46.006Z,6.11
2016-12-06T10:25:45.994Z,6.19
2016-12-06T10:26:45.991Z,6.25
2016-12-06T10:27:45.999Z,6.22
2016-12-06T10:28:45.963Z,6.21
2016-12-06T10:29:46.253Z,6.25
2016-12-06T10:30:45.940Z,6.31
2016-12-06T10:31:45.928Z,6.3
2016-12-06T10:32:45.923Z,6.27
2016-12-06T10:33:45.908Z,6.22
2016-12-06T10:34:45.896Z,6.31
2016-12-06T10:35:46.194Z,6.38
2016-12-06T10:36:46.194Z,6.27
2016-12-06T10:37:45.860Z,6.36
2016-12-06T10:38:45.851Z,6.38
2016-12-06T10:39:45.834Z,6.28
2016-12-06T10:40:45.824Z,6.38
2016-12-06T10:41:45.817Z,6.33
2016-12-06T10:42:46.153Z,6.27
2016-12-06T10:43:45.803Z,6.25
2016-12-06T10:44:45.781Z,6.19
2016-12-06T10:45:45.777Z,6.19
2016-12-06T10:46:45.763Z,6.28
2016-12-06T10:47:46.052Z,6.22
2016-12-06T10:48:45.742Z,6.18
2016-12-06T10:49:45.726Z,6.18
2016-12-06T10:50:45.720Z,6.17
2016-12-06T10:51:45.708Z,6.25
2016-12-06T10:52:45.698Z,6.25
2016-12-06T10:53:45.984Z,6.19
2016-12-06T10:54:45.681Z,6.22
2016-12-06T10:55:45.664Z,6.25
2016-12-06T10:56:45.649Z,6.28
2016-12-06T10:57:45.943Z,6.19
2016-12-06T10:58:45.627Z,6.15
2016-12-06T10:59:45.617Z,6.25
2016-12-06T11:00:45.616Z,6.14
2016-12-06T11:01:45.906Z,6.19
2016-12-06T11:02:45.584Z,6.18
2016-12-06T11:03:45.574Z,6.18
2016-12-06T11:04:45.562Z,6.08
2016-12-06T11:05:45.548Z,6.12
2016-12-06T11:06:45.543Z,6.09
2016-12-06T11:07:45.529Z,6.11
2016-12-06T11:08:45.521Z,6.04
2016-12-06T11:09:45.509Z,5.97
2016-12-06T11:10:45.495Z,5.94
2016-12-06T11:11:45.481Z,5.93
2016-12-06T11:12:45.468Z,5.93
2016-12-06T11:13:45.468Z,5.89
2016-12-06T11:14:45.448Z,5.85
2016-12-06T11:15:45.448Z,5.83
2016-12-06T11:16:45.420Z,5.86
2016-12-06T11:17:45.422Z,5.85
2016-12-06T11:18:45.404Z,5.86
2016-12-06T11:19:45.391Z,5.93
2016-12-06T11:20:45.412Z,5.94
2016-12-06T11:21:45.373Z,5.97
2016-12-06T11:22:45.366Z,5.9
2016-12-06T11:23:45.346Z,5.82
2016-12-06T11:24:45.341Z,5.9
2016-12-06T11:25:45.329Z,5.79
2016-12-06T11:26:45.315Z,5.86
2016-12-06T11:27:45.307Z,5.89
2016-12-06T11:28:45.296Z,5.85
2016-12-06T11:29:45.281Z,5.89
2016-12-06T11:30:45.263Z,5.94
2016-12-06T11:31:45.258Z,5.91
2016-12-06T11:32:45.244Z,6.01
2016-12-06T11:33:45.237Z,5.97
2016-12-06T11:34:45.221Z,6.01
2016-12-06T11:35:45.213Z,6.01
2016-12-06T11:36:45.204Z,5.93
2016-12-06T11:37:45.191Z,6.11
2016-12-06T11:38:45.173Z,6.08
2016-12-06T11:39:45.162Z,6
2016-12-06T11:40:45.159Z,5.99
2016-12-06T11:41:45.143Z,6.01
2016-12-06T11:42:45.133Z,6
2016-12-06T11:43:45.118Z,6.06
2016-12-06T11:44:45.106Z,6.08
2016-12-06T11:45:45.101Z,6.08
2016-12-06T11:46:45.089Z,6.04
2016-12-06T11:47:45.080Z,6.03
2016-12-06T11:48:45.062Z,6.08
2016-12-06T11:49:45.051Z,6.15
2016-12-06T11:50:45.042Z,6.14
2016-12-06T11:51:45.032Z,6.12
2016-12-06T11:52:45.020Z,6.14
2016-12-06T11:53:45.008Z,6.08
2016-12-06T11:54:44.996Z,6.17
2016-12-06T11:55:44.983Z,6.17
2016-12-06T11:56:45.273Z,6.12
2016-12-06T11:57:44.968Z,6.04
2016-12-06T11:58:44.958Z,6.06
2016-12-06T11:59:44.943Z,6.18
2016-12-06T12:00:44.926Z,6.06
2016-12-06T12:01:44.922Z,6.12
2016-12-06T12:02:44.908Z,6.11
2016-12-06T12:03:44.893Z,6.08
2016-12-06T12:04:44.881Z,6.15
2016-12-06T12:05:45.169Z,6.19
2016-12-06T12:06:44.858Z,6.09
2016-12-06T12:07:44.854Z,6.01
2016-12-06T12:08:44.845Z,6.12
2016-12-06T12:09:44.824Z,6.12
2016-12-06T12:10:44.822Z,6.11
2016-12-06T12:11:44.805Z,6.06
2016-12-06T12:12:44.789Z,6.09
2016-12-06T12:13:44.789Z,6.11
2016-12-06T12:14:44.766Z,6.06
2016-12-06T12:15:44.764Z,6
2016-12-06T12:16:44.746Z,6.09
2016-12-06T12:17:44.739Z,6
2016-12-06T12:18:44.732Z,6.08
2016-12-06T12:19:44.711Z,6.09
2016-12-06T12:20:44.708Z,6.06
2016-12-06T12:21:44.695Z,6.15
2016-12-06T12:22:44.680Z,6.08
2016-12-06T12:23:44.667Z,6.14
2016-12-06T12:24:44.675Z,6.12
2016-12-06T12:25:44.650Z,6.17
2016-12-06T12:26:44.663Z,6.11
2016-12-06T12:27:44.626Z,6.18
2016-12-06T12:28:44.611Z,6.22
2016-12-06T12:29:44.602Z,6.21
2016-12-06T12:30:44.585Z,6.22
2016-12-06T12:31:44.574Z,6.28
2016-12-06T12:32:44.874Z,6.21
2016-12-06T12:33:44.555Z,6.21
2016-12-06T12:34:44.547Z,6.28
2016-12-06T12:35:44.571Z,6.36
2016-12-06T12:36:44.524Z,6.25
2016-12-06T12:37:44.516Z,6.28
2016-12-06T12:38:44.497Z,6.27
2016-12-06T12:39:44.489Z,6.28
2016-12-06T12:40:44.493Z,6.38
2016-12-06T12:41:44.465Z,6.38
2016-12-06T12:42:44.457Z,6.31
2016-12-06T12:43:44.447Z,6.33
2016-12-06T12:44:44.432Z,6.31
2016-12-06T12:45:44.425Z,6.27
2016-12-06T12:46:44.416Z,6.34
2016-12-06T12:47:44.403Z,6.22
2016-12-06T12:48:44.390Z,6.31
2016-12-06T12:49:44.384Z,6.25
2016-12-06T12:50:44.374Z,6.4
2016-12-06T12:51:44.654Z,6.28
2016-12-06T12:52:44.342Z,6.33
2016-12-06T12:53:44.333Z,6.31
2016-12-06T12:54:44.625Z,6.41
2016-12-06T12:55:44.307Z,6.46
2016-12-06T12:56:44.306Z,6.36
2016-12-06T12:57:44.288Z,6.4
2016-12-06T12:58:44.589Z,6.44
2016-12-06T12:59:44.271Z,6.41
2016-12-06T13:00:44.257Z,6.49
2016-12-06T13:01:44.243Z,6.54
2016-12-06T13:02:44.234Z,6.48
2016-12-06T13:03:44.528Z,6.38
2016-12-06T13:04:44.211Z,6.41
2016-12-06T13:05:44.203Z,6.54
2016-12-06T13:06:44.190Z,6.41
2016-12-06T13:07:44.180Z,6.48
2016-12-06T13:08:44.168Z,6.55
2016-12-06T13:09:44.155Z,6.51
2016-12-06T13:10:44.449Z,6.51
2016-12-06T13:11:44.137Z,6.59
2016-12-06T13:12:44.126Z,6.49
2016-12-06T13:13:44.112Z,6.36
2016-12-06T13:14:44.105Z,6.37
2016-12-06T13:15:44.099Z,6.37
2016-12-06T13:16:44.079Z,6.34
2016-12-06T13:17:44.065Z,6.36
2016-12-06T13:18:44.059Z,6.37
2016-12-06T13:19:44.049Z,6.41
2016-12-06T13:20:44.037Z,6.43
2016-12-06T13:21:44.029Z,6.49